createdAt,value
2023-05-10T00:10:13.554Z,21.25
2023-05-10T00:38:48.644Z,22.05
2023-05-10T00:49:47.403Z,21.05
2023-05-10T00:55:24.655Z,21.35
2023-05-10T01:07:26.810Z,22.30
2023-05-10T01:09:56.106Z,23.00
2023-05-10T01:15:16.814Z,22.02
2023-05-10T01:18:11.036Z,20.45
2023-05-10T01:30:44.508Z,21.40
2023-05-10T01:33:24.214Z,20.80
2023-05-10T01:36:14.343Z,21.02
2023-05-10T01:42:57.102Z,20.58
2023-05-10T01:45:41.585Z,21.40
2023-05-10T01:54:12.350Z,21.38
2023-05-10T01:56:49.473Z,21.65
2023-05-10T01:59:26.005Z,22.05
2023-05-10T02:02:11.166Z,20.65
2023-05-10T02:04:42.418Z,21.42
2023-05-10T02:07:11.044Z,21.63
2023-05-10T02:20:51.086Z,21.23
2023-05-10T02:23:25.128Z,20.80
2023-05-10T02:25:53.416Z,20.25
2023-05-10T02:31:15.009Z,20.50
2023-05-10T02:33:42.665Z,20.50
2023-05-10T02:36:16.168Z,19.42
2023-05-10T02:38:45.578Z,20.92
2023-05-10T02:44:05.989Z,20.45
2023-05-10T02:46:37.329Z,20.92
2023-05-10T02:49:08.767Z,20.88
2023-05-10T02:51:40.513Z,20.52
2023-05-10T02:57:29.366Z,20.02
2023-05-10T02:59:57.991Z,19.48
2023-05-10T03:06:25.676Z,20.23
2023-05-10T03:18:08.617Z,21.17
2023-05-10T03:21:08.828Z,19.83
2023-05-10T03:30:28.225Z,20.30
2023-05-10T04:04:37.079Z,18.70
2023-05-10T04:13:28.462Z,19.83
2023-05-10T04:29:12.054Z,18.40
2023-05-10T04:31:43.089Z,18.70
2023-05-10T04:49:12.646Z,17.95
2023-05-10T04:52:02.921Z,19.02
2023-05-10T04:54:48.303Z,17.95
2023-05-10T04:58:02.404Z,17.13
2023-05-10T05:00:42.019Z,18.98
2023-05-10T05:06:31.171Z,18.35
2023-05-10T05:09:21.238Z,19.88
2023-05-10T05:15:05.552Z,20.55
2023-05-10T05:17:47.426Z,18.65
2023-05-10T05:20:49.025Z,18.67
2023-05-10T05:42:18.574Z,19.98
2023-05-10T06:53:22.493Z,18.48
2023-05-10T06:55:53.265Z,18.25
2023-05-10T06:58:26.419Z,17.70
2023-05-10T07:01:15.024Z,18.10
2023-05-10T07:03:45.401Z,17.85
2023-05-10T07:09:15.202Z,18.15
2023-05-10T07:11:45.333Z,18.20
2023-05-10T07:17:24.236Z,18.30
2023-05-10T07:32:54.876Z,18.85
2023-05-10T07:35:21.522Z,18.73
2023-05-10T07:37:48.649Z,17.80
2023-05-10T07:42:56.999Z,18.38
2023-05-10T07:45:24.557Z,18.25
2023-05-10T07:47:52.097Z,17.90
2023-05-10T07:50:19.631Z,18.02
2023-05-10T07:52:46.239Z,18.52
2023-05-10T07:55:12.914Z,18.88
2023-05-10T07:57:39.590Z,18.08
2023-05-10T08:00:10.157Z,17.17
2023-05-10T08:02:37.713Z,18.20
2023-05-10T08:05:04.952Z,18.08
2023-05-10T08:07:31.562Z,18.13
2023-05-10T08:10:01.584Z,18.50
2023-05-10T08:12:28.171Z,18.92
2023-05-10T08:14:54.912Z,18.00
2023-05-10T08:17:27.284Z,18.52
2023-05-10T08:19:55.054Z,18.60
2023-05-10T08:22:21.672Z,20.13
2023-05-10T08:24:48.843Z,19.63
2023-05-10T08:27:18.620Z,18.63
2023-05-10T08:29:51.374Z,18.13
2023-05-10T08:32:18.536Z,18.65
2023-05-10T08:34:46.237Z,18.67
2023-05-10T08:39:49.207Z,17.65
2023-05-10T08:42:26.877Z,18.15
2023-05-10T08:44:54.856Z,18.73
2023-05-10T08:47:22.383Z,19.88
2023-05-10T08:49:56.442Z,19.17
2023-05-10T08:52:23.999Z,19.05
2023-05-10T08:54:50.969Z,18.65
2023-05-10T08:59:49.762Z,18.75
2023-05-10T09:02:18.795Z,18.42
2023-05-10T09:04:50.377Z,18.83
2023-05-10T09:07:18.824Z,18.92
2023-05-10T09:09:46.437Z,19.27
2023-05-10T09:12:14.725Z,19.13
2023-05-10T09:14:41.916Z,18.42
2023-05-10T09:17:11.584Z,18.33
2023-05-10T09:19:41.755Z,18.63
2023-05-10T09:22:09.430Z,19.15
2023-05-10T09:24:43.575Z,19.05
2023-05-10T09:27:11.540Z,18.83
2023-05-10T09:30:04.531Z,18.52
2023-05-10T09:32:41.674Z,18.80
2023-05-10T09:35:12.686Z,19.48
2023-05-10T09:37:47.213Z,18.15
2023-05-10T09:40:24.238Z,18.40
2023-05-10T09:42:58.680Z,19.10
2023-05-10T09:45:26.418Z,18.02
2023-05-10T09:47:55.529Z,18.20
2023-05-10T09:50:22.647Z,18.05
2023-05-10T09:52:55.792Z,18.42
2023-05-10T09:55:23.435Z,18.33
2023-05-10T09:57:50.814Z,18.27
2023-05-10T10:00:21.305Z,18.38
2023-05-10T10:02:53.325Z,17.98
2023-05-10T10:05:47.667Z,18.08
2023-05-10T10:08:15.785Z,18.85
2023-05-10T10:10:47.257Z,19.17
2023-05-10T10:13:14.086Z,18.95
2023-05-10T10:15:41.332Z,25.50
2023-05-10T10:18:09.260Z,19.73
2023-05-10T10:20:51.447Z,18.80
2023-05-10T10:23:18.192Z,18.52
2023-05-10T10:25:46.079Z,19.02
2023-05-10T10:28:12.720Z,18.65
2023-05-10T10:30:52.376Z,18.42
2023-05-10T10:33:29.097Z,18.00
2023-05-10T10:35:56.957Z,18.75
2023-05-10T10:38:24.065Z,19.13
2023-05-10T10:41:09.259Z,18.27
2023-05-10T10:43:36.210Z,19.00
2023-05-10T10:46:19.493Z,18.75
2023-05-10T10:49:11.643Z,18.10
2023-05-10T10:51:43.875Z,18.00
2023-05-10T10:54:11.484Z,18.48
2023-05-10T10:57:08.986Z,18.42
2023-05-10T10:59:35.626Z,17.95
2023-05-10T11:02:03.931Z,18.45
2023-05-10T11:04:42.495Z,19.20
2023-05-10T11:07:19.081Z,19.27
2023-05-10T11:09:47.301Z,21.33
2023-05-10T11:12:16.991Z,18.23
2023-05-10T11:14:51.055Z,18.10
2023-05-10T11:17:28.879Z,19.17
2023-05-10T11:20:14.644Z,18.27
2023-05-10T11:25:27.991Z,18.40
2023-05-10T11:27:54.820Z,18.70
2023-05-10T11:32:55.082Z,18.85
2023-05-10T11:35:22.747Z,18.42
2023-05-10T11:37:49.474Z,18.67
2023-05-10T11:40:16.519Z,18.77
2023-05-10T11:42:43.928Z,18.85
2023-05-10T12:06:52.654Z,18.05
2023-05-10T12:09:39.714Z,18.65
2023-05-10T12:12:10.218Z,18.90
2023-05-10T12:14:36.966Z,18.42
2023-05-10T12:17:03.689Z,18.60
2023-05-10T12:22:26.084Z,20.20
2023-05-10T12:24:56.992Z,18.83
2023-05-10T12:27:32.764Z,18.70
2023-05-10T12:30:03.861Z,18.45
2023-05-10T12:32:55.216Z,18.67
2023-05-10T12:35:23.208Z,18.75
2023-05-10T12:37:53.137Z,18.23
2023-05-10T12:40:19.873Z,18.55
2023-05-10T12:42:46.583Z,18.92
2023-05-10T12:45:13.861Z,17.58
2023-05-10T12:47:43.715Z,18.88
2023-05-10T12:50:11.022Z,17.98
2023-05-10T12:52:38.861Z,18.02
2023-05-10T12:55:05.706Z,18.17
2023-05-10T13:00:01.968Z,18.38
2023-05-10T13:02:34.963Z,18.08
2023-05-10T13:05:02.355Z,19.35
2023-05-10T13:07:38.553Z,19.05
2023-05-10T13:10:11.004Z,19.08
2023-05-10T13:12:39.318Z,19.10
2023-05-10T13:15:06.595Z,21.40
2023-05-10T13:17:42.025Z,18.08
2023-05-10T13:20:10.745Z,20.48
2023-05-10T13:22:41.508Z,18.92
2023-05-10T13:25:08.488Z,18.83
2023-05-10T13:27:38.642Z,19.27
2023-05-10T13:30:05.974Z,18.10
2023-05-10T13:32:32.774Z,21.10
2023-05-10T13:37:29.605Z,19.27
2023-05-10T13:39:56.396Z,18.88
2023-05-10T13:42:24.292Z,17.67
2023-05-10T13:44:51.760Z,19.42
2023-05-10T13:47:24.889Z,19.40
2023-05-10T13:52:18.176Z,19.08
2023-05-10T13:54:48.440Z,18.20
2023-05-10T13:57:17.907Z,20.35
2023-05-10T13:59:44.683Z,2.35
2023-05-10T14:02:13.601Z,18.23
2023-05-10T14:04:41.166Z,7.53
2023-05-10T14:07:07.922Z,5.90
2023-05-10T14:09:34.605Z,2.67
2023-05-10T14:12:07.409Z,4.90
2023-05-10T14:14:34.047Z,3.45
2023-05-10T14:17:12.161Z,3.97
2023-05-10T14:19:51.298Z,2.55
2023-05-10T14:22:20.951Z,11.15
2023-05-10T14:24:48.700Z,4.45
2023-05-10T14:27:15.369Z,3.53
2023-05-10T14:29:42.727Z,2.38
2023-05-10T14:32:09.634Z,3.05
2023-05-10T14:37:14.958Z,2.33
2023-05-10T14:39:41.662Z,2.83
2023-05-10T14:42:08.302Z,4.32
2023-05-10T14:44:34.991Z,4.95
2023-05-10T14:49:56.930Z,5.15
2023-05-10T14:52:23.640Z,3.90
2023-05-10T14:54:50.279Z,3.78
2023-05-10T14:57:23.158Z,3.88
2023-05-10T15:02:17.518Z,4.15
2023-05-10T15:04:47.930Z,13.95
2023-05-10T15:07:17.582Z,6.47
2023-05-10T15:09:44.837Z,3.60
2023-05-10T15:12:12.098Z,6.00
2023-05-10T15:14:50.463Z,4.80
2023-05-10T15:17:20.792Z,2.65
2023-05-10T15:19:47.503Z,3.58
2023-05-10T15:22:18.039Z,10.95
2023-05-10T15:24:44.707Z,2.40
2023-05-10T15:27:14.640Z,3.78
2023-05-10T15:29:41.787Z,3.63
2023-05-10T15:32:08.947Z,3.15
2023-05-10T15:34:37.244Z,2.33
2023-05-10T15:37:06.577Z,3.20
2023-05-10T15:39:36.035Z,18.80
2023-05-10T15:44:45.772Z,18.77
2023-05-10T15:47:30.848Z,18.55
2023-05-10T15:50:01.330Z,18.27
2023-05-10T15:52:28.433Z,18.20
2023-05-10T15:54:55.148Z,18.67
2023-05-10T15:59:55.475Z,18.13
2023-05-10T16:02:23.640Z,18.15
2023-05-10T16:04:51.859Z,19.20
2023-05-10T16:07:18.600Z,18.85
2023-05-10T16:12:18.088Z,18.83
2023-05-10T16:17:29.159Z,18.77
2023-05-10T16:19:58.724Z,19.55
2023-05-10T16:22:30.086Z,18.38
2023-05-10T16:24:57.410Z,18.65
2023-05-10T16:27:24.603Z,19.02
2023-05-10T16:29:51.331Z,19.92
2023-05-10T16:34:45.653Z,19.70
2023-05-10T16:37:12.871Z,19.10
2023-05-10T16:39:44.711Z,19.88
2023-05-10T16:42:15.701Z,22.42
2023-05-10T16:44:43.024Z,19.63
2023-05-10T16:47:13.752Z,21.90
2023-05-10T16:49:42.634Z,20.30
2023-05-10T16:52:09.792Z,19.55
2023-05-10T16:54:37.833Z,20.08
2023-05-10T16:57:08.790Z,20.60
2023-05-10T16:59:35.426Z,20.25
2023-05-10T17:02:02.685Z,20.50
2023-05-10T17:04:30.017Z,20.33
2023-05-10T17:06:56.957Z,21.20
2023-05-10T17:11:59.462Z,19.77
2023-05-10T17:14:26.713Z,21.13
2023-05-10T17:16:53.568Z,20.80
2023-05-10T17:19:20.242Z,21.45
2023-05-10T17:22:07.631Z,21.20
2023-05-10T17:24:34.818Z,22.00
2023-05-10T17:27:03.675Z,20.90
2023-05-10T17:29:34.824Z,21.25
2023-05-10T17:32:01.629Z,21.35
2023-05-10T17:34:29.386Z,23.20
2023-05-10T17:36:56.077Z,21.92
2023-05-10T17:39:23.113Z,23.95
2023-05-10T17:44:26.651Z,21.33
2023-05-10T17:46:54.827Z,22.38
2023-05-10T17:49:25.153Z,22.75
2023-05-10T17:51:52.894Z,22.48
2023-05-10T17:54:19.540Z,21.65
2023-05-10T17:56:46.459Z,21.60
2023-05-10T17:59:14.135Z,22.38
2023-05-10T18:01:45.076Z,21.05
2023-05-10T18:04:11.800Z,20.90
2023-05-10T18:06:39.401Z,21.80
2023-05-10T18:09:07.927Z,21.73
2023-05-10T18:11:44.427Z,21.55
2023-05-10T18:14:13.064Z,23.20
2023-05-10T18:16:39.890Z,24.95
2023-05-10T18:19:06.743Z,22.67
2023-05-10T18:22:10.813Z,22.15
2023-05-10T18:24:41.044Z,21.80
2023-05-10T18:27:10.902Z,22.52
2023-05-10T18:29:38.402Z,21.13
2023-05-10T18:32:05.313Z,21.35
2023-05-10T18:34:32.061Z,21.23
2023-05-10T18:37:03.348Z,22.38
2023-05-10T18:39:36.043Z,21.33
2023-05-10T18:42:08.439Z,21.00
2023-05-10T18:44:35.166Z,21.13
2023-05-10T18:47:10.556Z,25.83
2023-05-10T18:49:37.237Z,22.45
2023-05-10T18:52:03.966Z,21.45
2023-05-10T18:54:33.445Z,22.42
2023-05-10T18:57:00.638Z,22.20
2023-05-10T18:59:28.198Z,21.33
2023-05-10T19:01:57.427Z,22.05
2023-05-10T19:04:27.559Z,23.25
2023-05-10T19:06:54.347Z,26.48
2023-05-10T19:09:21.393Z,21.88
2023-05-10T19:14:18.821Z,21.55
2023-05-10T19:16:45.600Z,21.80
2023-05-10T19:19:14.342Z,20.75
2023-05-10T19:21:43.947Z,21.30
2023-05-10T19:24:11.971Z,22.50
2023-05-10T19:26:38.670Z,25.50
2023-05-10T19:29:05.426Z,22.23
2023-05-10T19:31:36.769Z,22.27
2023-05-10T19:34:05.526Z,22.13
2023-05-10T19:36:34.368Z,24.13
2023-05-10T19:39:01.166Z,23.05
2023-05-10T19:41:27.839Z,21.05
2023-05-10T19:43:54.529Z,21.42
2023-05-10T19:46:21.208Z,22.52
2023-05-10T19:48:50.235Z,21.73
2023-05-10T19:51:17.405Z,22.55
2023-05-10T19:53:47.228Z,22.15
2023-05-10T19:56:14.441Z,23.30
2023-05-10T20:01:08.070Z,22.95
2023-05-10T20:06:01.948Z,22.52
2023-05-10T20:08:28.980Z,23.10
2023-05-10T20:10:57.967Z,23.77
2023-05-10T20:13:24.904Z,24.35
2023-05-10T20:15:58.314Z,24.92
2023-05-10T20:18:25.959Z,22.60
2023-05-10T20:21:05.112Z,23.20
2023-05-10T20:23:35.337Z,24.60
2023-05-10T20:26:01.991Z,26.27
2023-05-10T20:28:44.450Z,25.00
2023-05-10T20:31:13.733Z,25.92
2023-05-10T20:33:46.682Z,26.30
2023-05-10T20:36:13.330Z,27.25
2023-05-10T20:38:40.560Z,28.15
2023-05-10T20:41:07.718Z,27.63
2023-05-10T20:48:45.717Z,26.13
2023-05-10T20:51:12.392Z,27.60
2023-05-10T20:53:39.118Z,28.35
2023-05-10T20:56:06.221Z,26.85
2023-05-10T20:58:32.913Z,28.88
2023-05-10T21:01:01.282Z,26.30
2023-05-10T21:03:33.800Z,26.05
2023-05-10T21:06:00.800Z,25.90
2023-05-10T21:08:33.518Z,26.40
2023-05-10T21:11:08.349Z,25.88
2023-05-10T21:13:35.571Z,26.02
2023-05-10T21:18:29.156Z,24.55
2023-05-10T21:20:56.102Z,26.92
2023-05-10T21:23:25.701Z,27.45
2023-05-10T21:25:52.370Z,25.02
2023-05-10T21:28:19.129Z,24.30
2023-05-10T21:30:45.790Z,26.20
2023-05-10T21:33:13.121Z,26.85
2023-05-10T21:35:43.253Z,25.13
2023-05-10T21:38:15.780Z,25.58
2023-05-10T21:40:42.686Z,27.92
2023-05-10T21:43:09.864Z,26.42
2023-05-10T21:48:04.014Z,26.35
2023-05-10T21:50:35.199Z,27.35
2023-05-10T21:53:02.023Z,26.63
2023-05-10T21:55:31.705Z,25.60
2023-05-10T21:57:58.592Z,25.77
2023-05-10T22:00:25.344Z,26.35
2023-05-10T22:02:52.668Z,26.15
2023-05-10T22:05:19.407Z,26.05
2023-05-10T22:07:58.680Z,25.23
2023-05-10T22:10:37.066Z,26.65
2023-05-10T22:13:05.036Z,30.30
2023-05-10T22:15:34.214Z,26.33
2023-05-10T22:18:02.445Z,26.27
2023-05-10T22:20:29.489Z,26.67
2023-05-10T22:22:56.288Z,28.88
2023-05-10T22:25:23.526Z,26.52
2023-05-10T22:30:18.219Z,26.52
2023-05-10T22:32:58.543Z,26.38
2023-05-10T22:35:31.571Z,27.67
2023-05-10T22:38:01.208Z,27.88
2023-05-10T22:40:27.890Z,26.77
2023-05-10T22:42:58.308Z,28.67
2023-05-10T22:45:25.934Z,26.90
2023-05-10T22:47:52.728Z,28.38
2023-05-10T22:50:39.257Z,27.98
2023-05-10T22:53:06.911Z,27.60
2023-05-10T22:55:36.516Z,26.17
2023-05-10T22:58:09.988Z,26.00
2023-05-10T23:00:36.741Z,28.50
2023-05-10T23:03:03.921Z,26.80
2023-05-10T23:10:23.796Z,26.00
2023-05-10T23:12:50.557Z,27.83
2023-05-10T23:15:17.179Z,26.60
2023-05-10T23:17:47.322Z,25.55
2023-05-10T23:20:17.308Z,26.85
2023-05-10T23:22:49.913Z,26.50
2023-05-10T23:25:17.206Z,25.70
2023-05-10T23:30:36.219Z,26.55
2023-05-10T23:33:04.469Z,26.23
2023-05-10T23:35:32.107Z,27.20
2023-05-10T23:38:01.569Z,28.10
2023-05-10T23:40:28.225Z,25.98
2023-05-10T23:42:55.019Z,26.05
2023-05-10T23:45:21.639Z,25.80
2023-05-10T23:47:48.975Z,28.00
2023-05-10T23:52:43.454Z,26.13
2023-05-10T23:55:10.414Z,26.17
2023-05-10T23:57:37.836Z,26.80
